Time;durP1;ratioP1;P1;durP2;ratioP2;P2;SDS_P1;SDS_P2;PMS_P1;PMS_P2;Temp;Humidity;BMP_temperature;BMP_pressure;BME280_temperature;BME280_humidity;BME280_pressure;Samples;Min_cycle;Max_cycle;Signal;HPM_P1;HPM_P2
2021/01/05 00:01:18;;;;;;;24.27;10.17;;;;;;;-0.28;84.44;98517.25;5091060;28;20044;-79
2021/01/05 00:03:45;;;;;;;26.47;11.10;;;;;;;-0.33;84.70;98511.44;5090652;28;20101;-78
2021/01/05 00:06:13;;;;;;;23.50;10.00;;;;;;;-0.40;84.21;98498.59;5090675;28;20059;-79
2021/01/05 00:08:39;;;;;;;26.97;10.67;;;;;;;-0.26;84.38;98504.59;5090531;28;20051;-79
2021/01/05 00:11:06;;;;;;;26.03;10.83;;;;;;;-0.36;84.34;98494.72;5090369;28;20527;-79
2021/01/05 00:13:32;;;;;;;25.87;10.73;;;;;;;-0.40;84.43;98479.06;5090429;28;20101;-79
2021/01/05 00:15:58;;;;;;;27.33;11.60;;;;;;;-0.21;83.88;98505.03;5090132;28;20110;-79
2021/01/05 00:18:25;;;;;;;22.97;10.60;;;;;;;-0.26;84.07;98500.09;5105856;28;20050;-79
2021/01/05 00:20:51;;;;;;;27.90;10.23;;;;;;;-0.41;85.06;98488.88;5092801;28;20056;-79
2021/01/05 00:23:18;;;;;;;22.63;10.47;;;;;;;-0.38;84.13;98471.78;5090176;28;20377;-79
2021/01/05 00:25:45;;;;;;;29.37;11.60;;;;;;;-0.32;83.67;98489.09;5090085;28;20056;-79
2021/01/05 00:28:12;;;;;;;29.43;10.77;;;;;;;-0.41;84.57;98477.38;5089959;28;20054;-79
2021/01/05 00:30:38;;;;;;;28.23;10.57;;;;;;;-0.26;84.57;98512.59;5090639;28;20051;-79
2021/01/05 00:33:06;;;;;;;24.47;10.77;;;;;;;-0.44;85.42;98491.81;5090670;28;20071;-79
2021/01/05 00:35:35;;;;;;;25.23;10.93;;;;;;;-0.39;85.83;98505.66;5089754;28;20063;-79
2021/01/05 00:38:04;;;;;;;22.53;10.67;;;;;;;-0.50;85.37;98480.84;5090122;28;20123;-79
2021/01/05 00:40:32;;;;;;;27.57;11.13;;;;;;;-0.29;85.31;98511.03;5090663;28;20052;-79
2021/01/05 00:42:58;;;;;;;27.03;10.77;;;;;;;-0.36;85.06;98501.88;5087552;28;20048;-79
2021/01/05 00:45:29;;;;;;;26.27;12.67;;;;;;;-0.30;84.62;98500.47;5089638;28;20040;-79
2021/01/05 00:47:56;;;;;;;21.20;10.10;;;;;;;-0.29;84.91;98515.53;5090164;28;20123;-79
2021/01/05 00:50:24;;;;;;;26.47;11.40;;;;;;;-0.25;84.62;98512.47;5093803;28;20048;-78
2021/01/05 00:52:50;;;;;;;26.13;10.70;;;;;;;-0.25;84.06;98516.97;5093763;28;20502;-79
2021/01/05 00:55:17;;;;;;;24.97;12.47;;;;;;;-0.32;83.94;98508.63;5093980;28;20503;-78
2021/01/05 00:57:45;;;;;;;28.37;11.83;;;;;;;-0.32;84.37;98510.47;5093299;28;20040;-79
2021/01/05 01:00:15;;;;;;;24.27;10.57;;;;;;;-0.27;84.93;98527.78;5094823;28;20059;-79
2021/01/05 01:02:42;;;;;;;27.43;10.47;;;;;;;-0.43;85.20;98506.06;5096784;28;20047;-79
2021/01/05 01:05:09;;;;;;;26.53;11.10;;;;;;;-0.34;85.69;98515.09;5096561;28;20059;-79
2021/01/05 01:07:36;;;;;;;28.10;12.07;;;;;;;-0.28;85.85;98517.25;5096227;28;20044;-78
2021/01/05 01:10:04;;;;;;;29.37;11.67;;;;;;;-0.30;85.49;98521.84;5096263;28;20055;-79
2021/01/05 01:12:31;;;;;;;26.43;11.10;;;;;;;-0.39;85.75;98515.50;5096809;28;20131;-79
2021/01/05 01:14:59;;;;;;;30.00;12.90;;;;;;;-0.44;85.30;98489.16;5096418;28;20044;-79
2021/01/05 01:17:26;;;;;;;33.17;13.80;;;;;;;-0.20;85.01;98512.94;5096584;28;20047;-79
2021/01/05 01:19:52;;;;;;;27.80;11.57;;;;;;;-0.33;85.20;98506.09;5096335;28;20093;-79
2021/01/05 01:22:20;;;;;;;28.93;11.90;;;;;;;-0.30;86.31;98513.84;5096546;28;20048;-79
2021/01/05 01:24:47;;;;;;;26.03;12.20;;;;;;;-0.49;86.58;98486.06;5096319;28;20502;-79
2021/01/05 01:27:13;;;;;;;23.83;11.47;;;;;;;-0.40;86.16;98497.78;5096138;28;20044;-79
2021/01/05 01:29:40;;;;;;;29.93;13.00;;;;;;;-0.32;86.53;98513.97;5096105;28;20385;-79
2021/01/05 01:32:08;;;;;;;24.33;11.13;;;;;;;-0.46;86.43;98482.28;5096300;28;20047;-79
2021/01/05 01:34:35;;;;;;;29.20;11.47;;;;;;;-0.32;86.06;98516.63;5095940;28;20060;-79
2021/01/05 01:37:06;;;;;;;29.87;11.77;;;;;;;-0.47;85.94;98488.59;5096360;28;20450;-79
2021/01/05 01:39:32;;;;;;;26.30;10.40;;;;;;;-0.43;86.09;98490.84;5096097;28;20044;-80
2021/01/05 01:42:01;;;;;;;27.27;11.77;;;;;;;-0.41;86.04;98486.22;5095991;28;20454;-79
2021/01/05 01:44:30;;;;;;;28.13;11.77;;;;;;;-0.20;85.99;98509.41;5095634;28;20060;-79
2021/01/05 01:46:59;;;;;;;29.97;11.23;;;;;;;-0.44;86.50;98515.03;5095814;28;20484;-79
2021/01/05 01:49:26;;;;;;;27.73;10.97;;;;;;;-0.40;86.84;98506.63;5095925;28;20048;-79
2021/01/05 01:51:55;;;;;;;22.63;11.00;;;;;;;-0.40;87.45;98497.78;5095773;28;20052;-79
2021/01/05 01:54:47;;;;;;;24.67;10.53;;;;;;;-0.34;87.66;98507.94;5095518;28;20052;-79
2021/01/05 01:57:49;;;;;;;24.07;10.10;;;;;;;-0.53;87.03;98487.28;5095987;28;20047;-79
2021/01/05 02:01:06;;;;;;;21.33;10.47;;;;;;;-0.34;87.24;98515.09;5090185;28;20062;-79
2021/01/05 02:04:07;;;;;;;19.17;9.23;;;;;;;-0.31;88.31;98512.16;5095719;28;20044;-79
2021/01/05 02:06:48;;;;;;;26.50;10.37;;;;;;;-0.49;88.30;98495.91;5094441;28;20097;-79
2021/01/05 02:09:45;;;;;;;23.33;9.97;;;;;;;-0.40;87.63;98506.63;5093756;28;20434;-79
2021/01/05 02:12:19;;;;;;;26.60;11.37;;;;;;;-0.19;85.74;98514.59;5095507;28;20109;-79
2021/01/05 02:14:59;;;;;;;25.40;10.27;;;;;;;-0.32;87.14;98494.44;5095392;28;20112;-79
2021/01/05 02:17:41;;;;;;;19.92;9.18;;;;;;;-0.37;87.87;98495.66;5095612;28;20072;-79
2021/01/05 02:20:11;;;;;;;22.63;9.50;;;;;;;-0.36;88.09;98515.22;5095118;28;20116;-79
2021/01/05 02:22:50;;;;;;;22.77;9.33;;;;;;;-0.30;88.29;98509.38;5095611;28;20052;-79
2021/01/05 02:25:27;;;;;;;25.73;9.30;;;;;;;-0.40;88.27;98495.94;5095176;28;20059;-79
2021/01/05 02:27:59;;;;;;;25.07;8.60;;;;;;;-0.47;88.00;98489.44;5094909;28;20450;-80
2021/01/05 02:30:32;;;;;;;23.97;10.57;;;;;;;-0.46;88.58;98485.78;5094807;28;20048;-79
2021/01/05 02:33:06;;;;;;;23.40;10.13;;;;;;;-0.44;88.93;98491.81;5094188;28;20055;-79
2021/01/05 02:35:52;;;;;;;36.37;12.03;;;;;;;-0.42;88.12;98500.56;5094599;28;20048;-79
2021/01/05 02:38:42;;;;;;;30.57;13.00;;;;;;;-0.46;88.19;98484.94;5095153;28;20051;-79
2021/01/05 02:41:22;;;;;;;33.42;12.85;;;;;;;-0.45;88.82;98479.47;5095299;28;20113;-79
2021/01/05 02:44:12;;;;;;;22.95;10.48;;;;;;;-0.34;88.53;98502.59;5095078;28;20056;-79
2021/01/05 02:46:50;;;;;;;29.93;12.30;;;;;;;-0.51;89.09;98476.47;5095248;28;20102;-79
2021/01/05 02:49:30;;;;;;;26.27;12.10;;;;;;;-0.48;88.57;98487.75;5094597;28;20040;-79
2021/01/05 02:52:37;;;;;;;30.17;12.03;;;;;;;-0.34;88.65;98491.06;5095004;28;20044;-78
2021/01/05 02:55:32;;;;;;;29.03;11.60;;;;;;;-0.34;88.71;98489.22;5074395;28;20059;-79
2021/01/05 02:58:11;;;;;;;28.97;12.97;;;;;;;-0.47;88.92;98472.56;5094794;28;20048;-79
2021/01/05 03:01:30;;;;;;;27.60;12.93;;;;;;;-0.25;88.44;98493.78;5094671;28;20052;-79
2021/01/05 03:03:57;;;;;;;29.33;12.63;;;;;;;-0.38;88.36;98485.13;5074305;28;20052;-79
2021/01/05 03:06:38;;;;;;;29.77;12.20;;;;;;;-0.39;88.15;98470.09;5073502;28;20052;-79
2021/01/05 03:09:53;;;;;;;33.43;14.23;;;;;;;-0.18;87.83;98486.09;5091459;28;20052;-79
2021/01/05 03:12:32;;;;;;;28.33;13.37;;;;;;;-0.13;87.97;98489.19;5093507;28;20067;-79
2021/01/05 03:15:11;;;;;;;36.70;15.37;;;;;;;-0.23;87.52;98467.75;5093915;28;20052;-79
2021/01/05 03:17:47;;;;;;;29.37;13.10;;;;;;;-0.19;87.46;98466.53;5094495;28;20048;-79
2021/01/05 03:20:19;;;;;;;36.00;15.10;;;;;;;-0.02;86.96;98477.56;5094075;28;20040;-79
2021/01/05 03:22:53;;;;;;;30.83;14.77;;;;;;;0.01;87.94;98482.63;5094212;28;20047;-79
2021/01/05 03:25:21;;;;;;;38.13;15.57;;;;;;;-0.06;87.97;98492.16;5082170;28;20048;-79
2021/01/05 03:27:51;;;;;;;32.83;13.97;;;;;;;-0.09;88.34;98482.59;5093821;28;20101;-79
2021/01/05 03:30:25;;;;;;;33.20;13.60;;;;;;;-0.06;88.08;98486.81;5093882;28;20051;-79
2021/01/05 03:32:53;;;;;;;37.00;12.90;;;;;;;-0.11;88.33;98494.41;5094000;28;20052;-79
2021/01/05 03:35:19;;;;;;;34.07;13.40;;;;;;;-0.17;89.09;98497.63;5093636;28;20048;-79
2021/01/05 03:37:45;;;;;;;30.60;13.57;;;;;;;-0.20;88.37;98486.22;5094210;28;20442;-79
2021/01/05 03:40:12;;;;;;;25.20;11.50;;;;;;;-0.19;89.29;98492.41;5093860;28;20044;-79
2021/01/05 03:42:39;;;;;;;31.23;13.10;;;;;;;-0.34;88.89;98469.69;5093923;28;20048;-79
2021/01/05 03:45:07;;;;;;;28.30;13.60;;;;;;;-0.30;88.32;98461.28;5093471;28;20058;-79
2021/01/05 03:47:34;;;;;;;31.53;14.60;;;;;;;-0.12;88.32;98493.56;5093674;28;20442;-79
2021/01/05 03:50:02;;;;;;;33.03;12.90;;;;;;;-0.16;88.82;98491.28;5093737;28;20062;-79
2021/01/05 03:52:28;;;;;;;32.87;13.77;;;;;;;-0.17;88.64;98479.75;5094070;28;20044;-79
2021/01/05 03:54:55;;;;;;;38.93;14.10;;;;;;;-0.18;88.09;98472.72;5093441;28;20076;-79
2021/01/05 03:57:21;;;;;;;32.33;13.20;;;;;;;-0.05;87.75;98499.22;5093754;28;20060;-79
2021/01/05 03:59:47;;;;;;;29.07;13.27;;;;;;;-0.16;88.88;98489.47;5093436;28;20100;-79
2021/01/05 04:02:13;;;;;;;28.17;13.60;;;;;;;-0.10;88.30;98480.91;5093783;28;20040;-79
2021/01/05 04:04:40;;;;;;;28.53;12.30;;;;;;;-0.22;88.81;98481.97;5093029;28;20052;-79
2021/01/05 04:07:07;;;;;;;33.77;13.47;;;;;;;-0.09;88.28;98481.75;5072332;28;20057;-79
2021/01/05 04:09:33;;;;;;;27.03;12.73;;;;;;;-0.27;88.97;98468.16;5089194;28;20089;-79
2021/01/05 04:12:01;;;;;;;30.70;12.47;;;;;;;-0.32;89.28;98460.56;5073432;28;20051;-80
2021/01/05 04:14:27;;;;;;;31.17;13.03;;;;;;;-0.17;89.13;98479.75;5073061;28;20048;-79
2021/01/05 04:16:53;;;;;;;32.37;14.07;;;;;;;-0.30;88.98;98482.66;5073131;28;20055;-79
2021/01/05 04:19:20;;;;;;;33.70;14.07;;;;;;;-0.05;88.53;98489.34;5072954;28;20052;-80
2021/01/05 04:21:49;;;;;;;31.93;14.47;;;;;;;-0.09;88.63;98484.41;5075499;28;20049;-79
2021/01/05 04:24:16;;;;;;;30.05;13.52;;;;;;;-0.10;88.06;98469.38;5097061;28;20052;-79
2021/01/05 04:26:43;;;;;;;32.37;14.37;;;;;;;-0.01;88.67;98481.94;5097542;28;20052;-79
2021/01/05 04:29:09;;;;;;;28.57;13.87;;;;;;;0.01;88.23;98477.28;5097113;28;20040;-79
2021/01/05 04:31:42;;;;;;;27.80;13.57;;;;;;;-0.03;87.93;98465.16;5097795;28;20071;-79
2021/01/05 04:34:09;;;;;;;32.77;14.43;;;;;;;-0.01;88.19;98482.78;5097256;28;20059;-79
2021/01/05 04:36:35;;;;;;;33.23;14.03;;;;;;;0.01;88.52;98492.50;5097419;28;20048;-79
2021/01/05 04:39:03;;;;;;;28.97;13.33;;;;;;;-0.13;89.02;98485.69;5097295;28;20056;-79
2021/01/05 04:41:34;;;;;;;29.87;13.20;;;;;;;-0.14;89.34;98487.50;5097479;28;20048;-80
2021/01/05 04:44:03;;;;;;;29.03;13.07;;;;;;;-0.19;88.72;98469.19;5097027;28;20040;-79
2021/01/05 04:46:55;;;;;;;27.80;12.52;;;;;;;-0.24;88.88;98465.22;5096657;28;20052;-79
2021/01/05 04:49:57;;;;;;;29.13;13.07;;;;;;;0.06;88.21;98496.47;5097312;28;20676;-79
2021/01/05 04:52:30;;;;;;;32.07;14.27;;;;;;;0.13;88.36;98504.78;5097165;28;20457;-79
2021/01/05 04:55:03;;;;;;;28.50;13.97;;;;;;;0.01;88.36;98481.81;5096778;28;20559;-80
2021/01/05 04:57:34;;;;;;;27.20;12.80;;;;;;;-0.11;88.26;98481.88;5096986;28;20044;-79
2021/01/05 05:00:08;;;;;;;30.83;13.33;;;;;;;-0.15;88.22;98475.13;5096993;28;20055;-80
2021/01/05 05:02:49;;;;;;;28.97;13.33;;;;;;;-0.17;88.75;98474.41;5096961;28;20066;-79
2021/01/05 05:05:45;;;;;;;27.47;13.93;;;;;;;0.08;88.40;98504.34;5096569;28;20056;-78
2021/01/05 05:08:28;;;;;;;26.00;11.97;;;;;;;-0.20;88.63;98486.22;5096120;28;20519;-79
2021/01/05 05:10:58;;;;;;;23.50;10.83;;;;;;;-0.17;88.61;98494.94;5096377;28;20048;-79
2021/01/05 05:13:36;;;;;;;27.10;12.33;;;;;;;-0.24;89.50;98476.78;5096604;28;20489;-80
2021/01/05 05:16:16;;;;;;;24.30;11.30;;;;;;;-0.25;88.93;98483.09;5094956;28;20056;-79
2021/01/05 05:18:55;;;;;;;35.97;12.40;;;;;;;-0.27;89.29;98484.19;5096249;28;20052;-79
2021/01/05 05:21:36;;;;;;;28.02;12.90;;;;;;;-0.21;89.39;98486.31;5096312;28;20060;-79
2021/01/05 05:24:16;;;;;;;30.33;11.63;;;;;;;-0.29;89.51;98478.16;5096171;28;20052;-79
2021/01/05 05:26:49;;;;;;;27.97;12.67;;;;;;;0.00;88.74;98502.34;5096290;28;20047;-79
2021/01/05 05:29:31;;;;;;;23.50;11.77;;;;;;;-0.03;88.73;98508.78;5095983;28;20040;-79
2021/01/05 05:32:02;;;;;;;26.10;12.93;;;;;;;-0.12;89.32;98501.59;5096161;28;20673;-79
2021/01/05 05:34:34;;;;;;;28.50;11.97;;;;;;;-0.12;88.51;98498.91;5095325;28;20382;-80
2021/01/05 05:37:16;;;;;;;32.70;14.67;;;;;;;0.01;88.21;98503.19;5096121;28;20538;-80
2021/01/05 05:39:51;;;;;;;24.17;12.47;;;;;;;-0.19;88.81;98485.22;5095945;28;20056;-79
2021/01/05 05:42:57;;;;;;;24.57;12.00;;;;;;;0.13;88.49;98535.00;5096036;28;20044;-79
2021/01/05 05:45:28;;;;;;;27.77;13.10;;;;;;;0.04;88.20;98535.81;5095593;28;20047;-80
2021/01/05 05:48:01;;;;;;;27.90;12.20;;;;;;;-0.05;89.17;98529.44;5095864;28;20048;-79
2021/01/05 05:50:35;;;;;;;25.00;12.07;;;;;;;-0.08;88.65;98508.34;5095672;28;20484;-80
2021/01/05 05:53:08;;;;;;;26.47;11.63;;;;;;;-0.01;88.32;98520.19;5095565;28;20058;-80
2021/01/05 05:55:46;;;;;;;26.00;12.60;;;;;;;0.00;88.41;98521.06;5095288;28;20056;-80
2021/01/05 05:58:15;;;;;;;26.47;11.37;;;;;;;-0.13;88.23;98509.72;5095192;28;20056;-79
2021/01/05 06:00:46;;;;;;;25.60;11.77;;;;;;;-0.08;88.90;98528.88;5095153;28;20082;-80
2021/01/05 06:03:15;;;;;;;26.07;11.77;;;;;;;0.02;88.82;98537.78;5093857;28;20059;-80
2021/01/05 06:05:42;;;;;;;27.70;12.17;;;;;;;-0.15;88.10;98511.66;5094016;28;20369;-80
2021/01/05 06:08:11;;;;;;;29.67;13.10;;;;;;;-0.13;88.93;98517.75;5093318;28;20527;-80
2021/01/05 06:10:37;;;;;;;27.07;12.20;;;;;;;-0.08;89.32;98529.72;5093049;28;20052;-80
2021/01/05 06:13:04;;;;;;;26.07;11.77;;;;;;;-0.10;89.06;98533.50;5093370;28;20048;-80
2021/01/05 06:15:33;;;;;;;22.10;10.93;;;;;;;-0.17;89.18;98517.16;5093002;28;20127;-80
2021/01/05 06:18:01;;;;;;;29.73;12.03;;;;;;;0.05;89.11;98545.53;5082150;28;20134;-80
2021/01/05 06:20:27;;;;;;;21.57;11.83;;;;;;;-0.17;89.20;98533.19;5092213;28;20044;-80
2021/01/05 06:22:54;;;;;;;22.27;11.40;;;;;;;-0.07;89.32;98544.78;5092597;28;20052;-80
2021/01/05 06:25:21;;;;;;;21.67;10.23;;;;;;;-0.17;89.72;98524.31;5092206;28;20078;-80
2021/01/05 06:27:47;;;;;;;22.53;10.63;;;;;;;0.12;89.35;98554.72;5091888;28;20047;-80
2021/01/05 06:30:15;;;;;;;25.13;11.60;;;;;;;-0.02;88.05;98550.56;5093215;28;20051;-80
2021/01/05 06:32:41;;;;;;;22.73;10.97;;;;;;;-0.15;88.80;98536.59;5092061;28;20496;-80
2021/01/05 06:35:10;;;;;;;20.27;10.13;;;;;;;-0.10;89.13;98542.38;5092397;28;20060;-80
2021/01/05 06:37:37;;;;;;;19.15;10.35;;;;;;;-0.06;88.89;98562.50;5092908;28;20043;-80
2021/01/05 06:40:05;;;;;;;21.80;10.93;;;;;;;-0.15;88.85;98541.06;5088106;28;20044;-80
2021/01/05 06:42:32;;;;;;;22.77;10.83;;;;;;;-0.03;89.01;98556.91;5092886;28;20044;-80
2021/01/05 06:44:59;;;;;;;20.87;10.27;;;;;;;-0.16;89.53;98558.94;5090283;28;20051;-81
2021/01/05 06:47:25;;;;;;;23.83;10.77;;;;;;;-0.09;89.33;98559.22;5093073;28;20059;-83
2021/01/05 06:49:52;;;;;;;22.60;11.33;;;;;;;-0.14;89.69;98559.63;5082876;28;20047;-82
2021/01/05 06:52:19;;;;;;;25.00;11.53;;;;;;;-0.13;89.43;98549.81;5092379;28;20122;-79
2021/01/05 06:54:45;;;;;;;22.50;11.10;;;;;;;0.08;88.88;98580.03;5089562;28;20048;-78
2021/01/05 06:57:11;;;;;;;22.13;11.03;;;;;;;-0.05;89.48;98568.69;5091998;28;20056;-79
2021/01/05 06:59:38;;;;;;;23.67;11.10;;;;;;;-0.05;89.35;98572.19;5087493;28;20186;-79
2021/01/05 07:02:06;;;;;;;24.00;9.97;;;;;;;-0.23;89.31;98542.56;5088643;28;20093;-79
2021/01/05 07:04:33;;;;;;;22.53;10.17;;;;;;;-0.01;89.59;98573.63;5083064;28;20059;-79
2021/01/05 07:07:00;;;;;;;20.77;9.57;;;;;;;-0.19;89.53;98541.31;5089115;28;20075;-79
2021/01/05 07:09:30;;;;;;;23.33;11.37;;;;;;;-0.12;89.71;98565.72;5078989;28;20048;-79
2021/01/05 07:11:57;;;;;;;24.83;10.85;;;;;;;-0.02;89.32;98568.41;5084537;28;20135;-79
2021/01/05 07:14:25;;;;;;;24.27;11.93;;;;;;;0.08;88.91;98587.19;5090050;28;20495;-79
2021/01/05 07:16:52;;;;;;;19.53;9.67;;;;;;;-0.02;88.95;98573.78;5091457;28;20105;-79
2021/01/05 07:19:18;;;;;;;19.83;9.93;;;;;;;-0.12;89.01;98563.03;5091081;28;20035;-79
2021/01/05 07:21:45;;;;;;;19.60;10.10;;;;;;;-0.10;89.09;98561.06;5091624;28;20094;-79
2021/01/05 07:24:11;;;;;;;20.23;10.43;;;;;;;0.03;89.07;98579.59;5092059;28;20100;-79
2021/01/05 07:26:43;;;;;;;23.47;12.17;;;;;;;0.01;88.37;98567.31;5091271;28;20052;-78
2021/01/05 07:29:12;;;;;;;21.00;10.93;;;;;;;0.12;88.37;98588.59;5091963;28;20377;-79
2021/01/05 07:31:38;;;;;;;22.07;10.70;;;;;;;-0.02;88.62;98587.13;5090581;28;20055;-79
2021/01/05 07:34:05;;;;;;;20.43;9.53;;;;;;;-0.05;89.10;98577.53;5091559;28;20044;-78
2021/01/05 07:36:34;;;;;;;20.93;10.00;;;;;;;-0.08;89.15;98571.63;5091836;28;20051;-79
2021/01/05 07:39:10;;;;;;;18.50;9.18;;;;;;;-0.09;89.16;98577.94;5091350;28;20055;-79
2021/01/05 07:41:37;;;;;;;24.63;10.23;;;;;;;-0.03;89.39;98585.44;5090437;28;20056;-79
2021/01/05 07:44:05;;;;;;;22.33;10.67;;;;;;;0.12;88.95;98586.81;5090754;28;20052;-79
2021/01/05 07:46:31;;;;;;;20.80;10.80;;;;;;;-0.02;88.43;98577.28;5091031;28;20048;-79
2021/01/05 07:48:57;;;;;;;34.83;16.30;;;;;;;0.14;88.84;98592.84;5088069;28;20464;-79
2021/01/05 07:51:25;;;;;;;20.90;10.30;;;;;;;0.17;88.30;98597.09;5086310;28;20048;-79
2021/01/05 07:53:51;;;;;;;20.50;10.43;;;;;;;0.03;88.96;98582.25;5089218;28;20056;-79
2021/01/05 07:56:17;;;;;;;22.90;10.53;;;;;;;-0.05;89.56;98577.53;5080806;28;20052;-79
2021/01/05 07:58:46;;;;;;;19.33;8.80;;;;;;;0.03;89.48;98597.41;5091098;28;20048;-79
2021/01/05 08:01:14;;;;;;;25.27;11.07;;;;;;;0.03;89.76;98597.41;5090058;28;20047;-79
2021/01/05 08:03:40;;;;;;;26.43;11.37;;;;;;;-0.14;89.89;98570.31;5090913;28;20408;-78
2021/01/05 08:06:08;;;;;;;19.53;10.17;;;;;;;0.12;89.69;98607.31;5090375;28;20545;-79
2021/01/05 08:08:35;;;;;;;24.70;11.53;;;;;;;0.03;89.06;98592.94;5088470;28;20043;-79
2021/01/05 08:11:01;;;;;;;22.73;10.83;;;;;;;0.01;89.69;98596.72;5089363;28;20040;-79
2021/01/05 08:13:28;;;;;;;22.20;10.03;;;;;;;0.09;89.57;98600.44;5090840;28;20047;-79
2021/01/05 08:15:54;;;;;;;21.43;10.93;;;;;;;-0.15;90.58;98586.47;5098263;28;20044;-79
2021/01/05 08:18:21;;;;;;;23.53;10.67;;;;;;;-0.07;90.48;98608.06;5091104;28;20052;-79
2021/01/05 08:20:48;;;;;;;21.00;9.87;;;;;;;-0.03;90.59;98601.47;5091081;28;20071;-79
2021/01/05 08:23:18;;;;;;;23.63;10.57;;;;;;;-0.02;89.85;98584.47;5090066;28;20044;-79
2021/01/05 08:25:45;;;;;;;23.43;11.40;;;;;;;0.11;90.32;98601.13;5090843;28;20044;-78
2021/01/05 08:28:11;;;;;;;22.70;10.57;;;;;;;0.08;89.96;98604.06;5091574;28;20056;-79
2021/01/05 08:30:39;;;;;;;21.30;10.40;;;;;;;0.06;89.69;98582.00;5090338;28;20051;-78
2021/01/05 08:33:08;;;;;;;25.93;11.47;;;;;;;0.18;90.06;98604.09;5091237;28;20083;-78
2021/01/05 08:35:36;;;;;;;23.90;11.23;;;;;;;-0.08;89.99;98576.97;5090181;28;20044;-79
2021/01/05 08:38:03;;;;;;;25.10;11.50;;;;;;;-0.02;89.42;98587.97;5090939;28;20052;-79
2021/01/05 08:40:32;;;;;;;22.20;12.73;;;;;;;0.11;89.60;98597.63;5090314;28;20394;-79
2021/01/05 08:43:00;;;;;;;25.70;12.95;;;;;;;0.13;90.01;98598.31;5090937;28;20058;-79
2021/01/05 08:45:27;;;;;;;23.03;11.43;;;;;;;0.22;89.84;98594.03;5088699;28;20461;-78
2021/01/05 08:47:53;;;;;;;26.37;12.00;;;;;;;0.10;90.04;98585.22;5090796;28;20458;-79
2021/01/05 08:50:22;;;;;;;22.40;11.00;;;;;;;0.14;89.87;98576.81;5093756;28;20048;-78
2021/01/05 08:52:49;;;;;;;23.00;11.17;;;;;;;0.11;89.79;98582.44;5089698;28;20052;-79
2021/01/05 08:55:16;;;;;;;20.90;10.03;;;;;;;0.24;89.93;98589.38;5071409;28;20048;-79
2021/01/05 08:57:43;;;;;;;20.47;9.90;;;;;;;0.18;90.08;98590.75;5090098;28;20192;-79
2021/01/05 09:00:14;;;;;;;21.47;11.33;;;;;;;0.17;90.46;98597.94;5081248;28;20616;-79
2021/01/05 09:02:40;;;;;;;;;;;;;;;0.19;90.43;98595.13;5089965;28;20527;-79
2021/01/05 09:05:07;;;;;;;26.90;10.53;;;;;;;0.06;90.59;98581.13;5090479;28;20391;-79
2021/01/05 09:07:33;;;;;;;24.50;11.97;;;;;;;0.23;90.45;98599.22;5088741;28;20052;-79
2021/01/05 09:10:01;;;;;;;23.73;11.03;;;;;;;0.14;90.19;98582.16;5089904;28;20118;-79
2021/01/05 09:12:32;;;;;;;23.67;11.33;;;;;;;0.13;90.17;98572.44;5093572;28;20055;-79
2021/01/05 09:14:58;;;;;;;23.80;10.57;;;;;;;0.29;90.58;98596.03;5093729;28;20059;-79
2021/01/05 09:17:25;;;;;;;24.67;12.00;;;;;;;0.26;90.06;98582.91;5094078;28;20529;-79
2021/01/05 09:19:51;;;;;;;20.87;10.40;;;;;;;0.28;90.31;98588.13;5094537;28;20541;-79
2021/01/05 09:22:22;;;;;;;25.57;12.00;;;;;;;0.37;90.39;98605.22;5094340;28;20097;-80
2021/01/05 09:24:48;;;;;;;28.30;11.93;;;;;;;0.40;89.78;98594.25;5094002;28;20477;-80
2021/01/05 09:27:15;;;;;;;25.33;11.87;;;;;;;0.21;90.37;98582.50;5094472;28;20055;-81
2021/01/05 09:29:41;;;;;;;24.50;11.30;;;;;;;0.27;90.52;98589.97;5093335;28;20040;-81
2021/01/05 09:32:11;;;;;;;20.83;10.47;;;;;;;0.20;90.88;98580.78;5087825;28;20102;-81
2021/01/05 09:34:37;;;;;;;18.63;10.25;;;;;;;0.29;89.87;98581.81;5092469;28;20044;-80
2021/01/05 09:37:05;;;;;;;26.03;10.70;;;;;;;0.25;90.49;98577.72;5093683;28;20043;-81
2021/01/05 09:39:31;;;;;;;24.57;11.70;;;;;;;0.29;89.91;98579.97;5094100;28;20505;-80
2021/01/05 09:42:02;;;;;;;22.83;10.43;;;;;;;0.43;89.88;98594.81;5094197;28;20438;-80
2021/01/05 09:44:29;;;;;;;25.47;11.77;;;;;;;0.34;90.07;98585.75;5092986;28;20123;-80
2021/01/05 09:46:59;;;;;;;24.33;11.90;;;;;;;0.50;89.83;98585.28;5093458;28;20061;-80
2021/01/05 09:49:27;;;;;;;27.70;11.15;;;;;;;0.61;88.74;98592.34;5095637;28;20089;-81
2021/01/05 09:51:57;;;;;;;23.97;10.80;;;;;;;0.56;89.35;98599.06;5096121;28;20059;-81
2021/01/05 09:54:23;;;;;;;24.67;10.90;;;;;;;0.42;89.25;98586.91;5094839;28;20051;-81
2021/01/05 09:56:51;;;;;;;22.83;11.30;;;;;;;0.61;89.25;98597.69;5093451;28;20043;-81
2021/01/05 09:59:18;;;;;;;22.35;10.82;;;;;;;0.65;89.65;98603.63;5093321;28;20489;-81
2021/01/05 10:01:45;;;;;;;18.70;10.00;;;;;;;0.69;89.01;98603.22;5094106;28;20058;-81
2021/01/05 10:04:11;;;;;;;22.97;11.40;;;;;;;0.58;89.12;98570.38;5093389;28;20048;-81
2021/01/05 10:06:38;;;;;;;23.00;10.10;;;;;;;0.69;89.07;98584.50;5073936;28;20060;-81
2021/01/05 10:09:08;;;;;;;24.20;11.00;;;;;;;0.90;88.27;98588.91;5084618;28;20051;-81
2021/01/05 10:11:36;;;;;;;25.17;11.07;;;;;;;0.99;87.42;98579.19;5093620;28;20048;-81
2021/01/05 10:14:03;;;;;;;30.38;12.45;;;;;;;0.79;88.28;98567.63;5093643;28;20117;-81
2021/01/05 10:16:30;;;;;;;26.37;12.00;;;;;;;0.95;88.21;98593.84;5093406;28;20074;-81
2021/01/05 10:18:57;;;;;;;21.23;10.23;;;;;;;0.74;88.37;98569.84;5093841;28;20485;-81
2021/01/05 10:21:31;;;;;;;26.98;12.85;;;;;;;0.79;88.07;98592.53;5092828;28;20040;-81
2021/01/05 10:23:58;;;;;;;19.50;10.63;;;;;;;0.81;87.84;98598.63;5093407;28;20052;-81
2021/01/05 10:26:24;;;;;;;17.52;10.10;;;;;;;0.92;87.72;98600.34;5087419;28;20058;-81
2021/01/05 10:28:51;;;;;;;21.45;11.02;;;;;;;0.82;87.45;98568.19;5093290;28;20044;-81
2021/01/05 10:31:17;;;;;;;21.83;10.40;;;;;;;0.76;87.34;98586.63;5093113;28;20044;-81
2021/01/05 10:33:43;;;;;;;19.45;10.02;;;;;;;0.77;87.67;98572.25;5093665;28;20052;-81
2021/01/05 10:36:16;;;;;;;17.60;10.00;;;;;;;0.81;87.59;98590.59;5092797;28;20059;-81
2021/01/05 10:38:42;;;;;;;21.60;10.73;;;;;;;0.86;88.18;98585.66;5093272;28;20052;-81
2021/01/05 10:41:08;;;;;;;20.10;10.00;;;;;;;0.78;88.01;98564.06;5093371;28;20051;-81
2021/01/05 10:43:35;;;;;;;23.17;10.07;;;;;;;0.87;88.12;98579.34;5086776;28;20048;-81
2021/01/05 10:46:01;;;;;;;22.38;11.68;;;;;;;0.87;87.55;98586.50;5092550;28;20048;-81
2021/01/05 10:48:28;;;;;;;21.42;10.20;;;;;;;0.81;87.86;98568.31;5092571;28;20070;-81
2021/01/05 10:50:54;;;;;;;19.02;8.88;;;;;;;0.80;87.91;98578.19;5092867;28;20056;-82
2021/01/05 10:53:21;;;;;;;18.50;9.93;;;;;;;0.87;87.95;98554.38;5092839;28;20396;-81
2021/01/05 10:55:48;;;;;;;22.30;11.32;;;;;;;0.74;88.11;98540.41;5092692;28;20048;-81
2021/01/05 10:58:14;;;;;;;24.10;12.03;;;;;;;0.99;86.85;98555.09;5092725;28;20082;-81
2021/01/05 11:00:40;;;;;;;18.00;9.35;;;;;;;0.94;87.72;98573.44;5092459;28;20086;-81
2021/01/05 11:03:06;;;;;;;23.40;10.32;;;;;;;0.90;87.89;98567.50;5092692;28;20105;-81
2021/01/05 11:05:33;;;;;;;25.97;11.67;;;;;;;1.08;86.94;98554.28;5092079;28;20055;-81
2021/01/05 11:08:01;;;;;;;22.97;11.40;;;;;;;1.11;86.34;98548.63;5092465;28;20491;-81
2021/01/05 11:10:29;;;;;;;25.40;10.17;;;;;;;1.14;86.38;98539.50;5092221;28;20143;-81
2021/01/05 11:12:56;;;;;;;22.47;10.67;;;;;;;1.17;87.17;98549.91;5092745;28;20052;-82
2021/01/05 11:15:22;;;;;;;24.50;11.57;;;;;;;1.21;86.68;98546.81;5092059;28;20492;-81
2021/01/05 11:17:49;;;;;;;22.27;11.43;;;;;;;1.18;87.20;98573.03;5092230;28;20044;-82
2021/01/05 11:20:17;;;;;;;25.10;11.13;;;;;;;1.10;86.71;98543.41;5092519;28;20036;-81
2021/01/05 11:22:44;;;;;;;21.53;10.77;;;;;;;1.17;87.64;98555.28;5092281;28;20051;-81
2021/01/05 11:25:14;;;;;;;22.10;8.77;;;;;;;1.03;86.99;98549.34;5092160;28;20044;-82
2021/01/05 11:27:42;;;;;;;28.27;11.82;;;;;;;1.24;87.17;98562.59;5091870;28;20504;-81
2021/01/05 11:30:12;;;;;;;24.45;10.60;;;;;;;1.13;86.59;98525.25;5092024;28;20044;-81
2021/01/05 11:32:38;;;;;;;21.15;11.18;;;;;;;1.10;87.15;98535.38;5091672;28;20274;-81
2021/01/05 11:35:06;;;;;;;23.83;11.15;;;;;;;1.15;86.76;98527.81;5092001;28;20484;-82
2021/01/05 11:37:35;;;;;;;23.83;10.40;;;;;;;1.09;87.25;98545.25;5091986;28;20127;-82